sensor_id;sensor_type;location;lat;lon;timestamp;P1;durP1;ratioP1;P2;durP2;ratioP2
51467;SDS011;37545;45.302;-122.946;2022-07-29T00:00:47;5.47;;;2.60;;
51467;SDS011;37545;45.302;-122.946;2022-07-29T00:03:17;5.03;;;2.70;;
51467;SDS011;37545;45.302;-122.946;2022-07-29T00:05:46;3.17;;;2.90;;
51467;SDS011;37545;45.302;-122.946;2022-07-29T00:08:14;3.38;;;2.75;;
51467;SDS011;37545;45.302;-122.946;2022-07-29T00:10:43;4.68;;;2.90;;
51467;SDS011;37545;45.302;-122.946;2022-07-29T00:13:11;4.55;;;2.83;;
51467;SDS011;37545;45.302;-122.946;2022-07-29T00:15:40;2.63;;;2.42;;
51467;SDS011;37545;45.302;-122.946;2022-07-29T00:18:09;3.13;;;2.58;;
51467;SDS011;37545;45.302;-122.946;2022-07-29T00:20:39;3.25;;;2.25;;
51467;SDS011;37545;45.302;-122.946;2022-07-29T00:23:07;6.67;;;2.80;;
51467;SDS011;37545;45.302;-122.946;2022-07-29T00:25:36;5.25;;;2.70;;
51467;SDS011;37545;45.302;-122.946;2022-07-29T00:28:05;4.55;;;2.58;;
51467;SDS011;37545;45.302;-122.946;2022-07-29T00:30:33;3.10;;;2.70;;
51467;SDS011;37545;45.302;-122.946;2022-07-29T00:33:02;6.97;;;2.95;;
51467;SDS011;37545;45.302;-122.946;2022-07-29T00:35:30;4.65;;;2.53;;
51467;SDS011;37545;45.302;-122.946;2022-07-29T00:38:11;3.72;;;2.75;;
51467;SDS011;37545;45.302;-122.946;2022-07-29T00:40:40;4.97;;;2.60;;
51467;SDS011;37545;45.302;-122.946;2022-07-29T00:43:09;4.88;;;2.60;;
51467;SDS011;37545;45.302;-122.946;2022-07-29T00:45:38;5.88;;;2.88;;
51467;SDS011;37545;45.302;-122.946;2022-07-29T00:48:08;3.72;;;2.72;;
51467;SDS011;37545;45.302;-122.946;2022-07-29T00:50:37;8.18;;;2.72;;
51467;SDS011;37545;45.302;-122.946;2022-07-29T00:53:06;4.53;;;2.85;;
51467;SDS011;37545;45.302;-122.946;2022-07-29T00:55:37;5.07;;;2.60;;
51467;SDS011;37545;45.302;-122.946;2022-07-29T00:58:05;3.57;;;2.43;;
51467;SDS011;37545;45.302;-122.946;2022-07-29T01:00:34;3.55;;;2.72;;
51467;SDS011;37545;45.302;-122.946;2022-07-29T01:03:03;3.20;;;2.80;;
51467;SDS011;37545;45.302;-122.946;2022-07-29T01:05:31;5.35;;;2.88;;
51467;SDS011;37545;45.302;-122.946;2022-07-29T01:08:02;5.83;;;2.70;;
51467;SDS011;37545;45.302;-122.946;2022-07-29T01:10:30;8.02;;;3.00;;
51467;SDS011;37545;45.302;-122.946;2022-07-29T01:13:01;2.60;;;2.35;;
51467;SDS011;37545;45.302;-122.946;2022-07-29T01:15:31;4.57;;;3.08;;
51467;SDS011;37545;45.302;-122.946;2022-07-29T01:18:10;5.07;;;2.88;;
51467;SDS011;37545;45.302;-122.946;2022-07-29T01:20:49;4.95;;;2.88;;
51467;SDS011;37545;45.302;-122.946;2022-07-29T01:23:48;3.85;;;2.63;;
51467;SDS011;37545;45.302;-122.946;2022-07-29T01:26:41;4.55;;;2.30;;
51467;SDS011;37545;45.302;-122.946;2022-07-29T01:29:20;4.50;;;2.85;;
51467;SDS011;37545;45.302;-122.946;2022-07-29T01:31:54;5.30;;;2.60;;
51467;SDS011;37545;45.302;-122.946;2022-07-29T01:34:27;3.78;;;2.78;;
51467;SDS011;37545;45.302;-122.946;2022-07-29T01:37:05;4.53;;;2.70;;
51467;SDS011;37545;45.302;-122.946;2022-07-29T01:39:39;8.40;;;2.83;;
51467;SDS011;37545;45.302;-122.946;2022-07-29T01:42:12;5.27;;;3.13;;
51467;SDS011;37545;45.302;-122.946;2022-07-29T01:44:50;4.28;;;2.97;;
51467;SDS011;37545;45.302;-122.946;2022-07-29T01:47:26;3.00;;;2.28;;
51467;SDS011;37545;45.302;-122.946;2022-07-29T01:50:00;5.68;;;2.90;;
51467;SDS011;37545;45.302;-122.946;2022-07-29T01:52:34;4.35;;;2.75;;
51467;SDS011;37545;45.302;-122.946;2022-07-29T01:55:07;5.55;;;2.90;;
51467;SDS011;37545;45.302;-122.946;2022-07-29T01:57:41;3.63;;;2.75;;
51467;SDS011;37545;45.302;-122.946;2022-07-29T02:00:14;5.72;;;2.85;;
51467;SDS011;37545;45.302;-122.946;2022-07-29T02:02:44;4.18;;;2.65;;
51467;SDS011;37545;45.302;-122.946;2022-07-29T02:05:15;6.57;;;2.90;;
51467;SDS011;37545;45.302;-122.946;2022-07-29T02:07:48;5.82;;;3.25;;
51467;SDS011;37545;45.302;-122.946;2022-07-29T02:10:21;6.67;;;3.40;;
51467;SDS011;37545;45.302;-122.946;2022-07-29T02:12:52;5.13;;;2.80;;
51467;SDS011;37545;45.302;-122.946;2022-07-29T02:15:26;8.25;;;3.22;;
51467;SDS011;37545;45.302;-122.946;2022-07-29T02:17:58;6.32;;;2.75;;
51467;SDS011;37545;45.302;-122.946;2022-07-29T02:20:29;9.00;;;3.03;;
51467;SDS011;37545;45.302;-122.946;2022-07-29T02:22:59;5.10;;;2.67;;
51467;SDS011;37545;45.302;-122.946;2022-07-29T02:25:36;4.57;;;2.85;;
51467;SDS011;37545;45.302;-122.946;2022-07-29T02:28:06;6.63;;;2.72;;
51467;SDS011;37545;45.302;-122.946;2022-07-29T02:30:39;4.13;;;2.80;;
51467;SDS011;37545;45.302;-122.946;2022-07-29T02:33:10;6.82;;;3.05;;
51467;SDS011;37545;45.302;-122.946;2022-07-29T02:35:41;5.43;;;3.03;;
51467;SDS011;37545;45.302;-122.946;2022-07-29T02:38:13;5.38;;;2.72;;
51467;SDS011;37545;45.302;-122.946;2022-07-29T02:41:00;4.38;;;2.90;;
51467;SDS011;37545;45.302;-122.946;2022-07-29T02:43:31;6.70;;;3.10;;
51467;SDS011;37545;45.302;-122.946;2022-07-29T02:46:03;7.53;;;3.55;;
51467;SDS011;37545;45.302;-122.946;2022-07-29T02:48:37;5.85;;;3.10;;
51467;SDS011;37545;45.302;-122.946;2022-07-29T02:51:12;3.90;;;2.53;;
51467;SDS011;37545;45.302;-122.946;2022-07-29T02:53:46;7.22;;;2.78;;
51467;SDS011;37545;45.302;-122.946;2022-07-29T02:56:18;5.65;;;2.78;;
51467;SDS011;37545;45.302;-122.946;2022-07-29T02:58:53;8.68;;;3.30;;
51467;SDS011;37545;45.302;-122.946;2022-07-29T03:03:57;6.32;;;3.45;;
51467;SDS011;37545;45.302;-122.946;2022-07-29T03:06:30;5.47;;;3.10;;
51467;SDS011;37545;45.302;-122.946;2022-07-29T03:09:03;8.10;;;3.28;;
51467;SDS011;37545;45.302;-122.946;2022-07-29T03:11:32;3.30;;;3.00;;
51467;SDS011;37545;45.302;-122.946;2022-07-29T03:14:02;4.43;;;3.15;;
51467;SDS011;37545;45.302;-122.946;2022-07-29T03:16:33;4.70;;;3.10;;
51467;SDS011;37545;45.302;-122.946;2022-07-29T03:19:03;5.72;;;3.22;;
51467;SDS011;37545;45.302;-122.946;2022-07-29T03:21:32;7.30;;;3.17;;
51467;SDS011;37545;45.302;-122.946;2022-07-29T03:24:02;5.95;;;3.13;;
51467;SDS011;37545;45.302;-122.946;2022-07-29T03:26:30;5.22;;;3.08;;
51467;SDS011;37545;45.302;-122.946;2022-07-29T03:28:59;5.75;;;3.40;;
51467;SDS011;37545;45.302;-122.946;2022-07-29T03:31:27;3.85;;;3.20;;
51467;SDS011;37545;45.302;-122.946;2022-07-29T03:33:57;3.15;;;2.85;;
51467;SDS011;37545;45.302;-122.946;2022-07-29T03:36:26;5.90;;;3.50;;
51467;SDS011;37545;45.302;-122.946;2022-07-29T03:38:55;5.20;;;3.20;;
51467;SDS011;37545;45.302;-122.946;2022-07-29T03:41:23;3.50;;;3.20;;
51467;SDS011;37545;45.302;-122.946;2022-07-29T03:43:53;4.80;;;3.60;;
51467;SDS011;37545;45.302;-122.946;2022-07-29T03:46:23;5.32;;;3.15;;
51467;SDS011;37545;45.302;-122.946;2022-07-29T03:49:04;5.00;;;3.25;;
51467;SDS011;37545;45.302;-122.946;2022-07-29T03:51:34;6.22;;;3.25;;
51467;SDS011;37545;45.302;-122.946;2022-07-29T03:54:06;7.82;;;3.38;;
51467;SDS011;37545;45.302;-122.946;2022-07-29T03:56:37;4.65;;;3.20;;
51467;SDS011;37545;45.302;-122.946;2022-07-29T03:59:07;4.43;;;3.35;;
51467;SDS011;37545;45.302;-122.946;2022-07-29T04:01:37;6.22;;;3.40;;
51467;SDS011;37545;45.302;-122.946;2022-07-29T04:04:08;5.88;;;3.10;;
51467;SDS011;37545;45.302;-122.946;2022-07-29T04:06:38;5.72;;;3.70;;
51467;SDS011;37545;45.302;-122.946;2022-07-29T04:09:07;7.40;;;3.05;;
51467;SDS011;37545;45.302;-122.946;2022-07-29T04:11:36;6.95;;;3.58;;
51467;SDS011;37545;45.302;-122.946;2022-07-29T04:14:06;3.72;;;3.20;;
51467;SDS011;37545;45.302;-122.946;2022-07-29T04:16:34;4.80;;;3.30;;
51467;SDS011;37545;45.302;-122.946;2022-07-29T04:19:03;6.00;;;3.17;;
51467;SDS011;37545;45.302;-122.946;2022-07-29T04:21:38;4.50;;;3.05;;
51467;SDS011;37545;45.302;-122.946;2022-07-29T04:24:07;4.18;;;3.03;;
51467;SDS011;37545;45.302;-122.946;2022-07-29T04:26:35;4.35;;;3.10;;
51467;SDS011;37545;45.302;-122.946;2022-07-29T04:29:17;3.80;;;3.13;;
51467;SDS011;37545;45.302;-122.946;2022-07-29T04:31:45;6.00;;;2.92;;
51467;SDS011;37545;45.302;-122.946;2022-07-29T04:34:14;5.05;;;3.30;;
51467;SDS011;37545;45.302;-122.946;2022-07-29T04:36:44;5.05;;;3.08;;
51467;SDS011;37545;45.302;-122.946;2022-07-29T04:39:13;3.92;;;2.92;;
51467;SDS011;37545;45.302;-122.946;2022-07-29T04:41:43;6.18;;;2.88;;
51467;SDS011;37545;45.302;-122.946;2022-07-29T04:44:12;5.07;;;3.72;;
51467;SDS011;37545;45.302;-122.946;2022-07-29T04:46:41;5.88;;;3.50;;
51467;SDS011;37545;45.302;-122.946;2022-07-29T04:49:09;6.20;;;3.70;;
51467;SDS011;37545;45.302;-122.946;2022-07-29T04:51:38;5.13;;;3.38;;
51467;SDS011;37545;45.302;-122.946;2022-07-29T04:54:08;4.88;;;3.38;;
51467;SDS011;37545;45.302;-122.946;2022-07-29T04:56:37;6.25;;;4.70;;
51467;SDS011;37545;45.302;-122.946;2022-07-29T04:59:05;5.95;;;3.22;;
51467;SDS011;37545;45.302;-122.946;2022-07-29T05:01:34;6.95;;;3.80;;
51467;SDS011;37545;45.302;-122.946;2022-07-29T05:04:03;4.93;;;3.45;;
51467;SDS011;37545;45.302;-122.946;2022-07-29T05:06:31;5.28;;;3.15;;
51467;SDS011;37545;45.302;-122.946;2022-07-29T05:09:00;5.43;;;3.05;;
51467;SDS011;37545;45.302;-122.946;2022-07-29T05:11:30;5.15;;;3.20;;
51467;SDS011;37545;45.302;-122.946;2022-07-29T05:13:58;4.22;;;3.30;;
51467;SDS011;37545;45.302;-122.946;2022-07-29T05:16:27;4.43;;;3.03;;
51467;SDS011;37545;45.302;-122.946;2022-07-29T05:18:55;5.05;;;3.25;;
51467;SDS011;37545;45.302;-122.946;2022-07-29T05:21:24;4.25;;;3.00;;
51467;SDS011;37545;45.302;-122.946;2022-07-29T05:23:52;3.53;;;3.22;;
51467;SDS011;37545;45.302;-122.946;2022-07-29T05:26:21;5.07;;;2.50;;
51467;SDS011;37545;45.302;-122.946;2022-07-29T05:28:51;4.75;;;2.90;;
51467;SDS011;37545;45.302;-122.946;2022-07-29T05:31:20;4.18;;;2.70;;
51467;SDS011;37545;45.302;-122.946;2022-07-29T05:33:48;3.70;;;2.75;;
51467;SDS011;37545;45.302;-122.946;2022-07-29T05:36:17;4.13;;;3.28;;
51467;SDS011;37545;45.302;-122.946;2022-07-29T05:38:45;4.20;;;3.13;;
51467;SDS011;37545;45.302;-122.946;2022-07-29T05:41:14;6.07;;;2.80;;
51467;SDS011;37545;45.302;-122.946;2022-07-29T05:43:42;4.53;;;2.95;;
51467;SDS011;37545;45.302;-122.946;2022-07-29T05:46:13;8.30;;;2.95;;
51467;SDS011;37545;45.302;-122.946;2022-07-29T05:48:41;4.43;;;3.50;;
51467;SDS011;37545;45.302;-122.946;2022-07-29T05:51:10;4.38;;;2.92;;
51467;SDS011;37545;45.302;-122.946;2022-07-29T05:53:38;4.70;;;2.58;;
51467;SDS011;37545;45.302;-122.946;2022-07-29T05:56:07;5.05;;;3.22;;
51467;SDS011;37545;45.302;-122.946;2022-07-29T05:58:35;3.42;;;2.95;;
51467;SDS011;37545;45.302;-122.946;2022-07-29T06:01:04;5.95;;;3.50;;
51467;SDS011;37545;45.302;-122.946;2022-07-29T06:03:34;4.03;;;2.92;;
51467;SDS011;37545;45.302;-122.946;2022-07-29T06:06:03;4.13;;;3.38;;
51467;SDS011;37545;45.302;-122.946;2022-07-29T06:08:32;5.07;;;2.95;;
51467;SDS011;37545;45.302;-122.946;2022-07-29T06:11:01;8.18;;;3.22;;
51467;SDS011;37545;45.302;-122.946;2022-07-29T06:13:31;4.55;;;2.75;;
51467;SDS011;37545;45.302;-122.946;2022-07-29T06:15:59;3.42;;;2.83;;
51467;SDS011;37545;45.302;-122.946;2022-07-29T06:18:28;6.05;;;2.97;;
51467;SDS011;37545;45.302;-122.946;2022-07-29T06:20:59;3.13;;;2.40;;
51467;SDS011;37545;45.302;-122.946;2022-07-29T06:23:27;3.50;;;3.20;;
51467;SDS011;37545;45.302;-122.946;2022-07-29T06:25:56;2.75;;;2.35;;
51467;SDS011;37545;45.302;-122.946;2022-07-29T06:28:24;2.90;;;2.35;;
51467;SDS011;37545;45.302;-122.946;2022-07-29T06:30:53;3.67;;;2.55;;
51467;SDS011;37545;45.302;-122.946;2022-07-29T06:33:22;5.65;;;3.22;;
51467;SDS011;37545;45.302;-122.946;2022-07-29T06:35:50;5.03;;;3.05;;
51467;SDS011;37545;45.302;-122.946;2022-07-29T06:38:21;4.60;;;3.00;;
51467;SDS011;37545;45.302;-122.946;2022-07-29T06:40:49;6.18;;;3.00;;
51467;SDS011;37545;45.302;-122.946;2022-07-29T06:43:31;4.07;;;2.92;;
51467;SDS011;37545;45.302;-122.946;2022-07-29T06:46:03;3.67;;;2.97;;
51467;SDS011;37545;45.302;-122.946;2022-07-29T06:48:33;3.13;;;2.72;;
51467;SDS011;37545;45.302;-122.946;2022-07-29T06:51:03;4.28;;;2.88;;
51467;SDS011;37545;45.302;-122.946;2022-07-29T06:53:34;3.47;;;2.67;;
51467;SDS011;37545;45.302;-122.946;2022-07-29T06:56:03;5.67;;;2.93;;
51467;SDS011;37545;45.302;-122.946;2022-07-29T06:58:34;4.47;;;2.50;;
51467;SDS011;37545;45.302;-122.946;2022-07-29T07:01:03;4.35;;;2.95;;
51467;SDS011;37545;45.302;-122.946;2022-07-29T07:03:32;3.28;;;2.60;;
51467;SDS011;37545;45.302;-122.946;2022-07-29T07:06:01;4.50;;;2.80;;
51467;SDS011;37545;45.302;-122.946;2022-07-29T07:08:29;3.83;;;2.60;;
51467;SDS011;37545;45.302;-122.946;2022-07-29T07:10:59;4.75;;;2.55;;
51467;SDS011;37545;45.302;-122.946;2022-07-29T07:13:29;6.35;;;2.83;;
51467;SDS011;37545;45.302;-122.946;2022-07-29T07:16:00;6.88;;;2.63;;
51467;SDS011;37545;45.302;-122.946;2022-07-29T07:18:29;3.50;;;2.60;;
51467;SDS011;37545;45.302;-122.946;2022-07-29T07:20:57;5.72;;;2.90;;
51467;SDS011;37545;45.302;-122.946;2022-07-29T07:23:26;3.90;;;2.90;;
51467;SDS011;37545;45.302;-122.946;2022-07-29T07:25:54;6.88;;;3.45;;
51467;SDS011;37545;45.302;-122.946;2022-07-29T07:28:24;5.32;;;2.95;;
51467;SDS011;37545;45.302;-122.946;2022-07-29T07:30:53;4.68;;;2.88;;
51467;SDS011;37545;45.302;-122.946;2022-07-29T07:33:22;5.97;;;3.28;;
51467;SDS011;37545;45.302;-122.946;2022-07-29T07:35:50;6.35;;;2.55;;
51467;SDS011;37545;45.302;-122.946;2022-07-29T07:38:19;5.30;;;2.90;;
51467;SDS011;37545;45.302;-122.946;2022-07-29T07:40:47;4.82;;;2.47;;
51467;SDS011;37545;45.302;-122.946;2022-07-29T07:43:16;3.58;;;2.17;;
51467;SDS011;37545;45.302;-122.946;2022-07-29T07:45:46;4.45;;;2.10;;
51467;SDS011;37545;45.302;-122.946;2022-07-29T07:48:14;6.13;;;2.10;;
51467;SDS011;37545;45.302;-122.946;2022-07-29T07:50:51;5.35;;;2.20;;
51467;SDS011;37545;45.302;-122.946;2022-07-29T07:53:19;4.20;;;2.08;;
51467;SDS011;37545;45.302;-122.946;2022-07-29T07:55:55;6.57;;;2.42;;
51467;SDS011;37545;45.302;-122.946;2022-07-29T07:58:23;4.60;;;1.75;;
51467;SDS011;37545;45.302;-122.946;2022-07-29T08:00:54;2.95;;;2.10;;
51467;SDS011;37545;45.302;-122.946;2022-07-29T08:03:22;7.38;;;2.25;;
51467;SDS011;37545;45.302;-122.946;2022-07-29T08:05:51;7.90;;;2.55;;
51467;SDS011;37545;45.302;-122.946;2022-07-29T08:08:20;3.97;;;2.08;;
51467;SDS011;37545;45.302;-122.946;2022-07-29T08:10:48;3.63;;;2.60;;
51467;SDS011;37545;45.302;-122.946;2022-07-29T08:13:21;4.75;;;2.50;;
51467;SDS011;37545;45.302;-122.946;2022-07-29T08:15:50;4.75;;;2.35;;
51467;SDS011;37545;45.302;-122.946;2022-07-29T08:18:27;5.63;;;2.53;;
51467;SDS011;37545;45.302;-122.946;2022-07-29T08:23:25;3.88;;;2.40;;
51467;SDS011;37545;45.302;-122.946;2022-07-29T08:26:00;3.92;;;2.83;;
51467;SDS011;37545;45.302;-122.946;2022-07-29T08:28:29;4.05;;;2.50;;
51467;SDS011;37545;45.302;-122.946;2022-07-29T08:30:57;5.85;;;2.30;;
51467;SDS011;37545;45.302;-122.946;2022-07-29T08:33:27;3.65;;;2.08;;
51467;SDS011;37545;45.302;-122.946;2022-07-29T08:35:56;4.10;;;2.30;;
51467;SDS011;37545;45.302;-122.946;2022-07-29T08:38:24;8.13;;;2.42;;
51467;SDS011;37545;45.302;-122.946;2022-07-29T08:40:53;2.97;;;2.00;;
51467;SDS011;37545;45.302;-122.946;2022-07-29T08:43:22;3.25;;;1.98;;
51467;SDS011;37545;45.302;-122.946;2022-07-29T08:45:51;5.38;;;2.63;;
51467;SDS011;37545;45.302;-122.946;2022-07-29T08:48:20;3.45;;;2.08;;
51467;SDS011;37545;45.302;-122.946;2022-07-29T08:50:52;5.05;;;2.10;;
51467;SDS011;37545;45.302;-122.946;2022-07-29T08:53:24;3.63;;;1.90;;
51467;SDS011;37545;45.302;-122.946;2022-07-29T08:55:54;4.63;;;2.17;;
51467;SDS011;37545;45.302;-122.946;2022-07-29T08:58:23;6.25;;;2.17;;
51467;SDS011;37545;45.302;-122.946;2022-07-29T09:00:53;5.03;;;2.13;;
51467;SDS011;37545;45.302;-122.946;2022-07-29T09:03:23;6.82;;;2.35;;
51467;SDS011;37545;45.302;-122.946;2022-07-29T09:05:54;4.07;;;2.42;;
51467;SDS011;37545;45.302;-122.946;2022-07-29T09:08:23;4.00;;;2.30;;
51467;SDS011;37545;45.302;-122.946;2022-07-29T09:10:52;4.05;;;1.95;;
51467;SDS011;37545;45.302;-122.946;2022-07-29T09:13:21;3.78;;;2.40;;
51467;SDS011;37545;45.302;-122.946;2022-07-29T09:15:50;5.10;;;2.60;;
51467;SDS011;37545;45.302;-122.946;2022-07-29T09:18:32;5.05;;;2.17;;
51467;SDS011;37545;45.302;-122.946;2022-07-29T09:21:03;5.57;;;2.53;;
51467;SDS011;37545;45.302;-122.946;2022-07-29T09:23:59;3.70;;;2.22;;
51467;SDS011;37545;45.302;-122.946;2022-07-29T09:26:32;4.57;;;2.13;;
51467;SDS011;37545;45.302;-122.946;2022-07-29T09:29:07;6.32;;;2.58;;
51467;SDS011;37545;45.302;-122.946;2022-07-29T09:31:38;4.28;;;2.53;;
51467;SDS011;37545;45.302;-122.946;2022-07-29T09:34:08;4.40;;;2.10;;
51467;SDS011;37545;45.302;-122.946;2022-07-29T09:36:41;7.10;;;2.70;;
51467;SDS011;37545;45.302;-122.946;2022-07-29T09:39:11;6.90;;;2.20;;
51467;SDS011;37545;45.302;-122.946;2022-07-29T09:41:44;5.57;;;3.00;;
51467;SDS011;37545;45.302;-122.946;2022-07-29T09:44:13;4.97;;;2.10;;
51467;SDS011;37545;45.302;-122.946;2022-07-29T09:46:55;5.10;;;2.28;;
51467;SDS011;37545;45.302;-122.946;2022-07-29T09:49:28;3.10;;;2.00;;
51467;SDS011;37545;45.302;-122.946;2022-07-29T09:52:02;4.88;;;2.35;;
51467;SDS011;37545;45.302;-122.946;2022-07-29T09:54:32;3.47;;;2.47;;
51467;SDS011;37545;45.302;-122.946;2022-07-29T09:57:04;6.70;;;2.40;;
51467;SDS011;37545;45.302;-122.946;2022-07-29T09:59:34;2.85;;;2.55;;
51467;SDS011;37545;45.302;-122.946;2022-07-29T10:02:10;5.10;;;2.58;;
51467;SDS011;37545;45.302;-122.946;2022-07-29T10:04:40;7.20;;;2.60;;
51467;SDS011;37545;45.302;-122.946;2022-07-29T10:07:11;2.40;;;2.10;;
51467;SDS011;37545;45.302;-122.946;2022-07-29T10:09:39;5.35;;;2.55;;
51467;SDS011;37545;45.302;-122.946;2022-07-29T10:12:19;4.50;;;2.80;;
51467;SDS011;37545;45.302;-122.946;2022-07-29T10:14:49;4.00;;;2.42;;
51467;SDS011;37545;45.302;-122.946;2022-07-29T10:17:18;7.97;;;2.58;;
51467;SDS011;37545;45.302;-122.946;2022-07-29T10:19:46;4.85;;;2.58;;
51467;SDS011;37545;45.302;-122.946;2022-07-29T10:22:18;3.22;;;2.63;;
51467;SDS011;37545;45.302;-122.946;2022-07-29T10:24:47;4.35;;;2.60;;
51467;SDS011;37545;45.302;-122.946;2022-07-29T10:27:16;5.82;;;2.95;;
51467;SDS011;37545;45.302;-122.946;2022-07-29T10:29:44;3.33;;;2.47;;
51467;SDS011;37545;45.302;-122.946;2022-07-29T10:32:25;4.75;;;2.47;;
51467;SDS011;37545;45.302;-122.946;2022-07-29T10:35:10;3.95;;;2.15;;
51467;SDS011;37545;45.302;-122.946;2022-07-29T10:41:13;7.82;;;2.75;;
51467;SDS011;37545;45.302;-122.946;2022-07-29T10:43:57;5.22;;;2.47;;
51467;SDS011;37545;45.302;-122.946;2022-07-29T10:46:28;5.32;;;2.75;;
51467;SDS011;37545;45.302;-122.946;2022-07-29T10:49:05;5.53;;;2.20;;
51467;SDS011;37545;45.302;-122.946;2022-07-29T10:51:56;6.22;;;2.65;;
51467;SDS011;37545;45.302;-122.946;2022-07-29T10:54:38;7.65;;;2.90;;
51467;SDS011;37545;45.302;-122.946;2022-07-29T10:57:22;8.13;;;2.58;;
51467;SDS011;37545;45.302;-122.946;2022-07-29T11:02:56;5.72;;;2.72;;
51467;SDS011;37545;45.302;-122.946;2022-07-29T11:05:25;5.43;;;2.90;;
51467;SDS011;37545;45.302;-122.946;2022-07-29T11:10:51;5.25;;;3.10;;
51467;SDS011;37545;45.302;-122.946;2022-07-29T11:13:47;5.35;;;2.95;;
51467;SDS011;37545;45.302;-122.946;2022-07-29T11:16:17;3.42;;;2.80;;
51467;SDS011;37545;45.302;-122.946;2022-07-29T11:21:48;5.18;;;2.80;;
51467;SDS011;37545;45.302;-122.946;2022-07-29T11:24:19;3.00;;;2.50;;
51467;SDS011;37545;45.302;-122.946;2022-07-29T11:30:05;3.72;;;2.60;;
51467;SDS011;37545;45.302;-122.946;2022-07-29T11:32:35;10.27;;;2.70;;
51467;SDS011;37545;45.302;-122.946;2022-07-29T11:35:11;3.53;;;2.72;;
51467;SDS011;37545;45.302;-122.946;2022-07-29T11:37:42;4.25;;;3.10;;
51467;SDS011;37545;45.302;-122.946;2022-07-29T11:40:12;4.68;;;2.65;;
51467;SDS011;37545;45.302;-122.946;2022-07-29T11:42:44;6.30;;;2.65;;
51467;SDS011;37545;45.302;-122.946;2022-07-29T11:45:14;4.10;;;3.10;;
51467;SDS011;37545;45.302;-122.946;2022-07-29T11:47:49;4.83;;;2.73;;
51467;SDS011;37545;45.302;-122.946;2022-07-29T11:50:30;3.33;;;2.60;;
51467;SDS011;37545;45.302;-122.946;2022-07-29T11:53:00;5.55;;;2.85;;
51467;SDS011;37545;45.302;-122.946;2022-07-29T11:55:30;5.80;;;2.67;;
51467;SDS011;37545;45.302;-122.946;2022-07-29T11:58:03;5.75;;;2.78;;
51467;SDS011;37545;45.302;-122.946;2022-07-29T12:00:32;3.65;;;2.85;;
51467;SDS011;37545;45.302;-122.946;2022-07-29T12:03:03;5.68;;;2.88;;
51467;SDS011;37545;45.302;-122.946;2022-07-29T12:05:36;4.10;;;2.78;;
51467;SDS011;37545;45.302;-122.946;2022-07-29T12:08:07;3.65;;;2.80;;
51467;SDS011;37545;45.302;-122.946;2022-07-29T12:10:40;6.05;;;2.83;;
51467;SDS011;37545;45.302;-122.946;2022-07-29T12:13:13;3.58;;;2.90;;
51467;SDS011;37545;45.302;-122.946;2022-07-29T12:15:42;6.15;;;2.80;;
51467;SDS011;37545;45.302;-122.946;2022-07-29T12:18:19;5.25;;;2.53;;
51467;SDS011;37545;45.302;-122.946;2022-07-29T12:20:48;3.15;;;2.78;;
51467;SDS011;37545;45.302;-122.946;2022-07-29T12:23:23;5.30;;;3.28;;
51467;SDS011;37545;45.302;-122.946;2022-07-29T12:25:52;4.70;;;3.03;;
51467;SDS011;37545;45.302;-122.946;2022-07-29T12:28:22;4.63;;;2.80;;
51467;SDS011;37545;45.302;-122.946;2022-07-29T12:30:51;4.18;;;2.60;;
51467;SDS011;37545;45.302;-122.946;2022-07-29T12:33:21;3.90;;;2.80;;
51467;SDS011;37545;45.302;-122.946;2022-07-29T12:35:50;5.82;;;2.90;;
51467;SDS011;37545;45.302;-122.946;2022-07-29T12:38:21;5.65;;;3.42;;
51467;SDS011;37545;45.302;-122.946;2022-07-29T12:40:51;5.88;;;3.08;;
51467;SDS011;37545;45.302;-122.946;2022-07-29T12:43:22;5.32;;;2.95;;
51467;SDS011;37545;45.302;-122.946;2022-07-29T12:45:52;5.07;;;3.13;;
51467;SDS011;37545;45.302;-122.946;2022-07-29T12:48:32;3.83;;;2.95;;
51467;SDS011;37545;45.302;-122.946;2022-07-29T12:51:02;4.57;;;2.65;;
51467;SDS011;37545;45.302;-122.946;2022-07-29T12:53:31;3.42;;;2.80;;
51467;SDS011;37545;45.302;-122.946;2022-07-29T12:56:00;4.85;;;3.08;;
51467;SDS011;37545;45.302;-122.946;2022-07-29T12:58:31;3.65;;;2.97;;
51467;SDS011;37545;45.302;-122.946;2022-07-29T13:01:05;3.97;;;3.03;;
51467;SDS011;37545;45.302;-122.946;2022-07-29T13:03:46;4.25;;;2.67;;
51467;SDS011;37545;45.302;-122.946;2022-07-29T13:06:29;5.90;;;3.05;;
51467;SDS011;37545;45.302;-122.946;2022-07-29T13:09:04;4.22;;;3.10;;
51467;SDS011;37545;45.302;-122.946;2022-07-29T13:11:39;4.05;;;2.90;;
51467;SDS011;37545;45.302;-122.946;2022-07-29T13:14:11;4.47;;;2.83;;
51467;SDS011;37545;45.302;-122.946;2022-07-29T13:19:32;5.10;;;3.13;;
51467;SDS011;37545;45.302;-122.946;2022-07-29T13:22:01;4.28;;;2.90;;
51467;SDS011;37545;45.302;-122.946;2022-07-29T13:24:30;5.47;;;2.80;;
51467;SDS011;37545;45.302;-122.946;2022-07-29T13:26:59;3.33;;;2.80;;
51467;SDS011;37545;45.302;-122.946;2022-07-29T13:29:29;4.22;;;2.60;;
51467;SDS011;37545;45.302;-122.946;2022-07-29T13:31:58;7.35;;;3.30;;
51467;SDS011;37545;45.302;-122.946;2022-07-29T13:34:27;5.15;;;3.20;;
51467;SDS011;37545;45.302;-122.946;2022-07-29T13:36:55;6.25;;;3.30;;
51467;SDS011;37545;45.302;-122.946;2022-07-29T13:39:24;4.95;;;3.10;;
51467;SDS011;37545;45.302;-122.946;2022-07-29T13:41:52;3.95;;;2.75;;
51467;SDS011;37545;45.302;-122.946;2022-07-29T13:44:21;4.15;;;3.03;;
51467;SDS011;37545;45.302;-122.946;2022-07-29T13:46:51;5.30;;;3.00;;
51467;SDS011;37545;45.302;-122.946;2022-07-29T13:49:20;7.38;;;3.40;;
51467;SDS011;37545;45.302;-122.946;2022-07-29T13:51:48;6.13;;;3.10;;
51467;SDS011;37545;45.302;-122.946;2022-07-29T13:54:17;5.85;;;2.85;;
51467;SDS011;37545;45.302;-122.946;2022-07-29T13:56:45;6.53;;;3.00;;
51467;SDS011;37545;45.302;-122.946;2022-07-29T13:59:14;5.13;;;3.40;;
51467;SDS011;37545;45.302;-122.946;2022-07-29T14:01:42;5.35;;;3.63;;
51467;SDS011;37545;45.302;-122.946;2022-07-29T14:04:13;6.13;;;3.50;;
51467;SDS011;37545;45.302;-122.946;2022-07-29T14:06:41;6.63;;;4.00;;
51467;SDS011;37545;45.302;-122.946;2022-07-29T14:09:10;5.85;;;3.67;;
51467;SDS011;37545;45.302;-122.946;2022-07-29T14:11:38;8.02;;;3.35;;
51467;SDS011;37545;45.302;-122.946;2022-07-29T14:14:07;4.63;;;3.65;;
51467;SDS011;37545;45.302;-122.946;2022-07-29T14:16:36;7.00;;;3.38;;
51467;SDS011;37545;45.302;-122.946;2022-07-29T14:19:04;7.75;;;3.70;;
51467;SDS011;37545;45.302;-122.946;2022-07-29T14:21:35;7.68;;;3.67;;
51467;SDS011;37545;45.302;-122.946;2022-07-29T14:24:04;8.02;;;4.15;;
51467;SDS011;37545;45.302;-122.946;2022-07-29T14:26:33;5.28;;;3.35;;
51467;SDS011;37545;45.302;-122.946;2022-07-29T14:29:01;8.82;;;3.50;;
51467;SDS011;37545;45.302;-122.946;2022-07-29T14:31:30;9.30;;;3.63;;
51467;SDS011;37545;45.302;-122.946;2022-07-29T14:33:58;6.35;;;3.50;;
51467;SDS011;37545;45.302;-122.946;2022-07-29T14:36:27;7.30;;;3.25;;
51467;SDS011;37545;45.302;-122.946;2022-07-29T14:38:57;7.80;;;3.53;;
51467;SDS011;37545;45.302;-122.946;2022-07-29T14:41:26;6.93;;;3.25;;
51467;SDS011;37545;45.302;-122.946;2022-07-29T14:43:55;9.98;;;4.10;;
51467;SDS011;37545;45.302;-122.946;2022-07-29T14:46:26;6.80;;;3.78;;
51467;SDS011;37545;45.302;-122.946;2022-07-29T14:48:54;7.18;;;3.58;;
51467;SDS011;37545;45.302;-122.946;2022-07-29T14:51:23;9.70;;;3.67;;
51467;SDS011;37545;45.302;-122.946;2022-07-29T14:53:51;9.15;;;3.78;;